createdAt,value
2019-03-01T00:01:16.384Z,27.25
2019-03-01T00:03:44.698Z,27.90
2019-03-01T00:06:22.102Z,35.05
2019-03-01T00:09:13.338Z,30.05
2019-03-01T00:12:00.603Z,19.17
2019-03-01T00:15:22.140Z,30.15
2019-03-01T00:18:16.251Z,25.12
2019-03-01T00:21:10.920Z,21.15
2019-03-01T00:24:23.314Z,25.72
2019-03-01T00:27:22.630Z,12.23
2019-03-01T00:30:35.628Z,24.37
2019-03-01T00:33:55.440Z,19.35
2019-03-01T00:37:19.270Z,22.67
2019-03-01T00:39:59.630Z,26.02
2019-03-01T00:43:05.200Z,23.38
2019-03-01T00:45:33.336Z,21.37
2019-03-01T00:48:01.453Z,21.97
2019-03-01T00:50:29.807Z,30.37
2019-03-01T00:52:57.984Z,29.87
2019-03-01T00:55:26.153Z,28.30
2019-03-01T00:57:54.280Z,24.87
2019-03-01T01:00:27.933Z,25.08
2019-03-01T01:02:56.145Z,28.75
2019-03-01T01:05:24.286Z,28.52
2019-03-01T01:07:52.454Z,23.42
2019-03-01T01:10:20.669Z,28.87
2019-03-01T01:12:48.863Z,25.88
2019-03-01T01:15:16.983Z,27.70
2019-03-01T01:17:45.144Z,33.13
2019-03-01T01:20:13.352Z,34.55
2019-03-01T01:22:41.817Z,29.23
2019-03-01T01:25:10.116Z,13.98
2019-03-01T01:27:41.009Z,23.27
2019-03-01T01:30:10.723Z,28.23
2019-03-01T01:32:38.814Z,30.12
2019-03-01T01:35:06.988Z,27.73
2019-03-01T01:37:35.159Z,29.55
2019-03-01T01:40:03.375Z,25.65
2019-03-01T01:42:31.547Z,23.67
2019-03-01T01:44:59.745Z,23.00
2019-03-01T01:47:28.010Z,25.85
2019-03-01T01:49:56.187Z,25.75
2019-03-01T01:52:24.320Z,31.85
2019-03-01T01:54:52.522Z,28.57
2019-03-01T01:57:20.667Z,26.85
2019-03-01T01:59:48.775Z,27.17
2019-03-01T02:02:16.941Z,19.42
2019-03-01T02:04:45.156Z,21.73
2019-03-01T02:07:13.583Z,19.48
2019-03-01T02:09:41.778Z,23.25
2019-03-01T02:12:10.239Z,26.33
2019-03-01T02:14:39.105Z,23.65
2019-03-01T02:17:07.379Z,27.98
2019-03-01T02:19:35.594Z,20.90
2019-03-01T02:22:03.719Z,29.20
2019-03-01T02:24:31.892Z,22.80
2019-03-01T02:27:24.072Z,23.05
2019-03-01T02:29:52.258Z,25.85
2019-03-01T02:32:28.866Z,25.75
2019-03-01T02:34:57.064Z,28.75
2019-03-01T02:37:25.273Z,27.65
2019-03-01T02:39:53.463Z,28.15
2019-03-01T02:42:21.706Z,26.80
2019-03-01T02:44:49.890Z,29.07
2019-03-01T02:47:18.053Z,27.48
2019-03-01T02:49:46.246Z,24.77
2019-03-01T02:52:14.600Z,28.87
2019-03-01T02:54:43.073Z,25.97
2019-03-01T02:57:11.508Z,35.60
2019-03-01T02:59:39.671Z,26.73
2019-03-01T03:02:07.908Z,29.65
2019-03-01T03:04:36.255Z,31.12
2019-03-01T03:07:23.415Z,31.10
2019-03-01T03:09:51.651Z,29.90
2019-03-01T03:15:09.127Z,32.13
2019-03-01T03:17:37.245Z,31.85
2019-03-01T03:20:05.867Z,29.60
2019-03-01T03:22:34.037Z,29.72
2019-03-01T03:25:02.234Z,34.05
2019-03-01T03:27:30.410Z,31.40
2019-03-01T03:29:58.531Z,29.25
2019-03-01T03:32:26.986Z,31.68
2019-03-01T03:34:55.116Z,28.27
2019-03-01T03:37:23.211Z,32.95
2019-03-01T03:39:51.354Z,27.13
2019-03-01T03:42:19.534Z,28.40
2019-03-01T03:44:47.734Z,33.13
2019-03-01T03:47:15.879Z,29.63
2019-03-01T03:49:44.223Z,38.17
2019-03-01T03:52:13.022Z,31.40
2019-03-01T03:54:41.418Z,42.38
2019-03-01T03:57:09.574Z,32.95
2019-03-01T03:59:37.720Z,36.50
2019-03-01T04:02:06.281Z,33.85
2019-03-01T04:04:34.482Z,35.25
2019-03-01T04:07:02.622Z,30.72
2019-03-01T04:09:31.257Z,35.95
2019-03-01T04:11:59.384Z,36.63
2019-03-01T04:14:27.509Z,34.90
2019-03-01T04:16:55.780Z,30.02
2019-03-01T04:19:24.010Z,34.08
2019-03-01T04:21:52.351Z,32.50
2019-03-01T04:24:20.501Z,36.60
2019-03-01T04:26:49.001Z,32.00
2019-03-01T04:29:17.447Z,31.07
2019-03-01T04:31:46.009Z,29.65
2019-03-01T04:34:14.437Z,35.73
2019-03-01T04:36:42.601Z,42.20
2019-03-01T04:39:10.740Z,33.13
2019-03-01T04:41:38.996Z,35.50
2019-03-01T04:44:07.797Z,29.95
2019-03-01T04:46:35.925Z,34.43
2019-03-01T04:49:04.062Z,40.85
2019-03-01T04:51:55.716Z,35.95
2019-03-01T04:54:24.012Z,37.73
2019-03-01T04:56:52.234Z,32.03
2019-03-01T04:59:20.663Z,36.58
2019-03-01T05:01:48.766Z,35.70
2019-03-01T05:04:16.973Z,36.35
2019-03-01T05:06:45.127Z,34.35
2019-03-01T05:09:13.588Z,35.68
2019-03-01T05:11:41.845Z,32.35
2019-03-01T05:14:10.062Z,29.30
2019-03-01T05:16:38.261Z,35.00
2019-03-01T05:19:06.449Z,40.17
2019-03-01T05:21:34.577Z,31.60
2019-03-01T05:24:02.890Z,31.37
2019-03-01T05:26:34.996Z,33.05
2019-03-01T05:29:03.194Z,30.75
2019-03-01T05:31:31.685Z,39.50
2019-03-01T05:34:00.063Z,36.98
2019-03-01T05:36:28.294Z,32.55
2019-03-01T05:38:56.477Z,39.03
2019-03-01T05:41:24.789Z,36.45
2019-03-01T05:43:52.961Z,35.88
2019-03-01T05:46:21.560Z,35.15
2019-03-01T05:48:49.705Z,35.88
2019-03-01T05:51:17.865Z,34.20
2019-03-01T05:53:46.170Z,34.38
2019-03-01T05:56:14.375Z,31.07
2019-03-01T05:59:07.277Z,34.83
2019-03-01T06:01:43.960Z,35.50
2019-03-01T06:04:41.280Z,37.78
2019-03-01T06:07:59.279Z,32.13
2019-03-01T06:10:51.624Z,34.08
2019-03-01T06:14:06.150Z,34.50
2019-03-01T06:17:14.484Z,37.95
2019-03-01T06:20:11.811Z,37.88
2019-03-01T06:23:12.031Z,43.83
2019-03-01T06:26:18.300Z,38.08
2019-03-01T06:29:45.527Z,39.13
2019-03-01T06:32:54.317Z,38.70
2019-03-01T06:35:49.616Z,34.70
2019-03-01T06:39:18.125Z,42.10
2019-03-01T06:42:15.697Z,41.98
2019-03-01T06:45:16.166Z,37.98
2019-03-01T06:47:47.551Z,41.90
2019-03-01T06:50:20.491Z,41.15
2019-03-01T06:52:48.845Z,40.83
2019-03-01T06:55:35.787Z,38.35
2019-03-01T06:58:03.948Z,40.08
2019-03-01T07:03:45.462Z,37.73
2019-03-01T07:06:13.663Z,46.28
2019-03-01T07:08:41.983Z,41.25
2019-03-01T07:11:10.160Z,46.35
2019-03-01T07:13:38.526Z,39.42
2019-03-01T07:16:06.962Z,37.13
2019-03-01T07:18:35.270Z,49.75
2019-03-01T07:21:03.556Z,43.50
2019-03-01T07:23:36.780Z,45.65
2019-03-01T07:26:01.690Z,40.70
2019-03-01T07:28:30.013Z,33.60
2019-03-01T07:30:58.282Z,40.33
2019-03-01T07:33:26.953Z,40.00
2019-03-01T07:35:55.099Z,35.65
2019-03-01T07:38:23.243Z,41.33
2019-03-01T07:40:51.483Z,39.67
2019-03-01T07:43:19.595Z,39.83
2019-03-01T07:45:47.837Z,40.28
2019-03-01T07:48:16.452Z,41.42
2019-03-01T07:50:44.805Z,33.65
2019-03-01T07:53:13.265Z,35.80
2019-03-01T07:55:41.481Z,40.35
2019-03-01T07:58:09.859Z,34.10
2019-03-01T08:00:38.207Z,32.23
2019-03-01T08:03:06.355Z,40.58
2019-03-01T08:05:35.608Z,44.15
2019-03-01T08:08:04.868Z,36.03
2019-03-01T08:10:33.026Z,41.92
2019-03-01T08:13:21.701Z,36.55
2019-03-01T08:15:50.032Z,35.43
2019-03-01T08:18:18.246Z,39.83
2019-03-01T08:20:46.492Z,33.90
2019-03-01T08:23:14.802Z,31.85
2019-03-01T08:25:42.944Z,40.60
2019-03-01T08:28:11.264Z,36.48
2019-03-01T08:30:42.454Z,46.18
2019-03-01T08:33:09.532Z,43.73
2019-03-01T08:35:37.871Z,43.48
2019-03-01T08:38:06.051Z,39.45
2019-03-01T08:40:34.304Z,37.53
2019-03-01T08:43:02.455Z,36.23
2019-03-01T08:45:32.953Z,39.25
2019-03-01T08:48:00.608Z,33.80
2019-03-01T08:50:29.031Z,40.48
2019-03-01T08:52:57.377Z,37.83
2019-03-01T08:55:25.741Z,44.90
2019-03-01T08:57:54.202Z,32.17
2019-03-01T09:00:26.984Z,31.93
2019-03-01T09:02:57.135Z,35.43
2019-03-01T09:05:25.497Z,36.68
2019-03-01T09:07:53.751Z,42.75
2019-03-01T09:10:22.128Z,41.65
2019-03-01T09:12:50.998Z,36.15
2019-03-01T09:15:19.515Z,37.35
2019-03-01T09:17:47.798Z,41.40
2019-03-01T09:20:16.390Z,40.28
2019-03-01T09:22:44.840Z,31.25
2019-03-01T09:25:13.335Z,33.30
2019-03-01T09:27:41.784Z,38.28
2019-03-01T09:30:16.400Z,31.70
2019-03-01T09:32:44.710Z,30.15
2019-03-01T09:35:32.207Z,26.12
2019-03-01T09:38:01.045Z,25.65
2019-03-01T09:40:29.698Z,35.83
2019-03-01T09:42:57.993Z,28.77
2019-03-01T09:45:35.570Z,27.95
2019-03-01T09:47:56.150Z,27.55
2019-03-01T09:50:24.439Z,33.63
2019-03-01T09:52:55.476Z,27.80
2019-03-01T09:55:22.634Z,31.23
2019-03-01T09:57:50.855Z,32.10
2019-03-01T10:00:21.721Z,32.67
2019-03-01T10:02:49.882Z,36.80
2019-03-01T10:05:18.693Z,43.10
2019-03-01T10:07:47.001Z,34.67
2019-03-01T10:10:18.923Z,42.23
2019-03-01T10:12:47.369Z,37.98
2019-03-01T10:15:15.625Z,34.35
2019-03-01T10:17:44.105Z,34.35
2019-03-01T10:20:13.615Z,33.02
2019-03-01T10:22:41.892Z,32.42
2019-03-01T10:25:11.954Z,28.00
2019-03-01T10:27:40.476Z,28.55
2019-03-01T10:30:15.090Z,22.13
2019-03-01T10:32:43.379Z,29.50
2019-03-01T10:35:12.496Z,27.07
2019-03-01T10:37:40.648Z,34.40
2019-03-01T10:40:10.644Z,24.95
2019-03-01T10:42:38.855Z,22.17
2019-03-01T10:45:09.068Z,35.35
2019-03-01T10:47:37.360Z,29.67
2019-03-01T10:50:06.328Z,34.30
2019-03-01T10:52:34.453Z,30.17
2019-03-01T10:55:02.592Z,38.73
2019-03-01T10:57:30.774Z,52.15
2019-03-01T10:59:59.211Z,39.70
2019-03-01T11:02:27.397Z,45.73
2019-03-01T11:04:55.752Z,29.55
2019-03-01T11:07:24.027Z,60.30
2019-03-01T11:09:52.231Z,80.57
2019-03-01T11:12:20.638Z,47.17
2019-03-01T11:14:49.151Z,93.30
2019-03-01T11:17:17.486Z,92.12
2019-03-01T11:19:45.892Z,105.22
2019-03-01T11:22:14.223Z,97.15
2019-03-01T11:24:42.368Z,85.10
2019-03-01T11:27:13.036Z,106.12
2019-03-01T11:29:40.540Z,89.55
2019-03-01T11:32:08.784Z,88.97
2019-03-01T11:34:37.034Z,87.82
2019-03-01T11:37:05.254Z,76.17
2019-03-01T11:39:33.536Z,84.05
2019-03-01T11:42:02.004Z,91.02
2019-03-01T11:44:30.248Z,87.40
2019-03-01T11:46:58.472Z,86.90
2019-03-01T11:49:26.631Z,83.50
2019-03-01T11:51:54.847Z,69.10
2019-03-01T11:54:23.465Z,59.63
2019-03-01T11:56:53.716Z,78.60
2019-03-01T11:59:22.345Z,77.50
2019-03-01T12:01:50.625Z,83.55
2019-03-01T12:04:19.087Z,80.72
2019-03-01T12:06:47.955Z,80.35
2019-03-01T12:09:16.334Z,80.03
2019-03-01T12:11:44.631Z,90.32
2019-03-01T12:14:12.767Z,85.75
2019-03-01T12:16:41.113Z,77.50
2019-03-01T12:19:09.482Z,89.77
2019-03-01T12:21:38.022Z,88.00
2019-03-01T12:24:06.302Z,66.75
2019-03-01T12:26:34.668Z,88.40
2019-03-01T12:29:02.983Z,96.95
2019-03-01T12:31:31.410Z,73.47
2019-03-01T12:33:59.805Z,91.22
2019-03-01T12:36:28.091Z,91.50
2019-03-01T12:38:56.350Z,85.62
2019-03-01T12:41:24.818Z,90.75
2019-03-01T12:43:53.213Z,92.10
2019-03-01T12:46:21.508Z,96.60
2019-03-01T12:48:49.706Z,88.40
2019-03-01T12:51:17.917Z,79.75
2019-03-01T12:53:46.158Z,87.97
2019-03-01T12:56:14.371Z,89.72
2019-03-01T12:58:42.567Z,79.65
2019-03-01T13:01:10.740Z,77.60
2019-03-01T13:03:40.663Z,104.35
2019-03-01T13:06:08.958Z,84.70
2019-03-01T13:08:37.307Z,76.17
2019-03-01T13:11:05.708Z,52.08
2019-03-01T13:13:34.656Z,66.35
2019-03-01T13:16:04.037Z,66.92
2019-03-01T13:18:32.251Z,57.08
2019-03-01T13:21:00.501Z,29.32
2019-03-01T13:23:28.948Z,61.37
2019-03-01T13:25:57.971Z,45.30
2019-03-01T13:28:26.503Z,35.28
2019-03-01T13:30:54.731Z,41.75
2019-03-01T13:33:23.123Z,32.33
2019-03-01T13:35:51.688Z,51.68
2019-03-01T13:38:20.093Z,39.25
2019-03-01T13:40:48.727Z,42.23
2019-03-01T13:43:23.791Z,40.23
2019-03-01T13:45:53.459Z,41.60
2019-03-01T13:48:22.762Z,37.85
2019-03-01T13:50:51.648Z,29.77
2019-03-01T13:53:19.989Z,39.10
2019-03-01T13:55:48.432Z,37.38
2019-03-01T13:58:16.902Z,37.10
2019-03-01T14:00:45.656Z,38.13
2019-03-01T14:03:15.487Z,28.83
2019-03-01T14:05:43.875Z,29.00
2019-03-01T14:08:12.288Z,31.30
2019-03-01T14:10:41.814Z,31.87
2019-03-01T14:13:14.431Z,37.23
2019-03-01T14:18:09.247Z,36.58
2019-03-01T14:20:37.781Z,52.17
2019-03-01T14:23:06.325Z,40.15
2019-03-01T14:25:34.812Z,22.90
2019-03-01T14:28:05.150Z,37.67
2019-03-01T14:30:33.754Z,29.80
2019-03-01T14:33:02.093Z,51.18
2019-03-01T14:35:30.483Z,37.80
2019-03-01T14:37:58.855Z,37.95
2019-03-01T14:40:27.720Z,46.05
2019-03-01T14:42:56.293Z,33.13
2019-03-01T14:45:25.944Z,42.33
2019-03-01T14:47:55.726Z,26.80
2019-03-01T14:50:25.016Z,40.25
2019-03-01T14:52:58.470Z,39.15
2019-03-01T14:55:27.438Z,29.37
2019-03-01T14:58:03.080Z,40.85
2019-03-01T15:00:39.281Z,35.40
2019-03-01T15:03:31.120Z,26.15
2019-03-01T15:05:59.454Z,25.10
2019-03-01T15:08:27.945Z,24.18
2019-03-01T15:10:56.619Z,32.53
2019-03-01T15:13:25.097Z,39.10
2019-03-01T15:15:53.549Z,33.50
2019-03-01T15:18:21.999Z,29.12
2019-03-01T15:20:50.355Z,39.20
2019-03-01T15:23:20.780Z,30.30
2019-03-01T15:25:49.153Z,49.08
2019-03-01T15:28:17.902Z,28.47
2019-03-01T15:30:47.285Z,34.98
2019-03-01T15:33:16.171Z,37.50
2019-03-01T15:35:45.336Z,20.88
2019-03-01T15:38:13.659Z,28.60
2019-03-01T15:40:42.087Z,23.25
2019-03-01T15:43:10.567Z,26.85
2019-03-01T15:45:39.880Z,29.50
2019-03-01T15:48:09.093Z,30.90
2019-03-01T15:50:37.624Z,24.43
2019-03-01T15:53:05.987Z,21.85
2019-03-01T15:55:34.330Z,20.57
2019-03-01T15:58:02.708Z,40.85
2019-03-01T16:00:31.216Z,18.30
2019-03-01T16:03:00.502Z,24.90
2019-03-01T16:05:29.158Z,20.20
2019-03-01T16:07:58.028Z,20.20
2019-03-01T16:10:26.736Z,20.88
2019-03-01T16:12:54.935Z,24.82
2019-03-01T16:15:23.228Z,19.57
2019-03-01T16:17:51.616Z,15.15
2019-03-01T16:20:20.141Z,25.50
2019-03-01T16:22:56.076Z,13.03
2019-03-01T16:25:24.584Z,19.80
2019-03-01T16:27:54.212Z,16.57
2019-03-01T16:30:23.352Z,17.12
2019-03-01T16:32:51.609Z,16.80
2019-03-01T16:35:19.989Z,19.62
2019-03-01T16:40:25.016Z,21.65
2019-03-01T16:42:54.665Z,14.07
2019-03-01T16:45:23.619Z,15.50
2019-03-01T16:47:51.976Z,23.25
2019-03-01T16:50:20.397Z,35.52
2019-03-01T16:52:49.020Z,9.70
2019-03-01T16:55:18.001Z,22.50
2019-03-01T16:57:48.672Z,19.27
2019-03-01T17:00:18.120Z,25.30
2019-03-01T17:02:47.997Z,20.02
2019-03-01T17:05:16.649Z,17.57
2019-03-01T17:07:44.983Z,10.63
2019-03-01T17:10:15.600Z,20.00
2019-03-01T17:15:14.897Z,17.87
2019-03-01T17:17:43.975Z,21.33
2019-03-01T17:20:12.398Z,14.93
2019-03-01T17:22:40.883Z,19.52
2019-03-01T17:25:09.368Z,19.95
2019-03-01T17:27:40.036Z,19.98
2019-03-01T17:30:11.118Z,28.23
2019-03-01T17:32:39.914Z,24.15
2019-03-01T17:35:08.936Z,24.47
2019-03-01T17:37:37.998Z,16.07
2019-03-01T17:40:06.883Z,17.02
2019-03-01T17:42:35.141Z,16.87
2019-03-01T17:45:04.499Z,12.80
2019-03-01T17:47:33.129Z,18.05
2019-03-01T17:50:01.670Z,12.37
2019-03-01T17:52:33.710Z,13.25
2019-03-01T17:55:02.768Z,15.53
2019-03-01T17:57:32.946Z,12.05
2019-03-01T18:00:02.593Z,16.30
2019-03-01T18:02:30.831Z,14.47
2019-03-01T18:04:59.079Z,15.90
2019-03-01T18:07:28.272Z,8.85
2019-03-01T18:09:56.951Z,13.32
2019-03-01T18:12:25.756Z,7.83
2019-03-01T18:14:54.343Z,11.70
2019-03-01T18:17:23.165Z,11.93
2019-03-01T18:19:51.560Z,14.07
2019-03-01T18:22:22.909Z,10.88
2019-03-01T18:27:19.331Z,10.80
2019-03-01T18:29:47.904Z,7.05
2019-03-01T18:32:17.241Z,15.98
2019-03-01T18:34:45.804Z,9.60
2019-03-01T18:37:19.415Z,8.78
2019-03-01T18:39:45.460Z,9.65
2019-03-01T18:42:38.069Z,7.25
2019-03-01T18:45:07.070Z,7.80
2019-03-01T18:47:37.972Z,14.75
2019-03-01T18:50:09.966Z,13.83
2019-03-01T18:52:39.786Z,11.78
2019-03-01T18:55:10.108Z,12.47
2019-03-01T18:57:39.693Z,13.03
2019-03-01T19:00:32.455Z,20.32
2019-03-01T19:03:05.499Z,10.95
2019-03-01T19:05:36.678Z,17.15
2019-03-01T19:08:06.499Z,15.70
2019-03-01T19:10:35.877Z,11.65
2019-03-01T19:13:08.275Z,9.65
2019-03-01T19:15:38.399Z,10.93
2019-03-01T19:18:08.127Z,16.67
2019-03-01T19:20:38.024Z,15.63
2019-03-01T19:23:08.485Z,13.80
2019-03-01T19:25:38.281Z,9.40
2019-03-01T19:28:08.152Z,10.08
2019-03-01T19:30:37.897Z,9.35
2019-03-01T19:33:07.901Z,27.00
2019-03-01T19:35:38.637Z,15.65
2019-03-01T19:38:08.916Z,17.92
2019-03-01T19:40:39.193Z,12.45
2019-03-01T19:43:10.299Z,13.65
2019-03-01T19:45:41.770Z,14.93
2019-03-01T19:48:11.933Z,10.75
2019-03-01T19:50:43.575Z,14.33
2019-03-01T19:53:13.741Z,19.57
2019-03-01T19:55:44.033Z,14.50
2019-03-01T19:58:16.862Z,10.20
2019-03-01T20:00:46.567Z,15.38
2019-03-01T20:03:16.313Z,22.35
2019-03-01T20:05:52.647Z,13.97
2019-03-01T20:08:22.431Z,11.73
2019-03-01T20:10:52.578Z,11.25
2019-03-01T20:13:22.405Z,12.73
2019-03-01T20:15:52.872Z,16.42
2019-03-01T20:20:51.590Z,12.43
2019-03-01T20:26:11.627Z,15.55
2019-03-01T20:28:43.648Z,16.20
2019-03-01T20:31:14.912Z,12.75
2019-03-01T20:33:45.146Z,9.35
2019-03-01T20:36:17.640Z,11.57
2019-03-01T20:38:47.178Z,15.88
2019-03-01T20:41:17.145Z,12.78
2019-03-01T20:43:47.344Z,11.48
2019-03-01T20:46:17.529Z,12.65
2019-03-01T20:48:47.557Z,9.15
2019-03-01T20:51:17.451Z,12.55
2019-03-01T20:53:49.501Z,17.10
2019-03-01T20:56:20.031Z,13.53
2019-03-01T20:58:49.981Z,18.82
2019-03-01T21:01:22.538Z,27.32
2019-03-01T21:03:52.536Z,10.50
2019-03-01T21:06:22.146Z,11.00
2019-03-01T21:08:52.516Z,17.25
2019-03-01T21:11:25.317Z,15.85
2019-03-01T21:13:55.292Z,12.37
2019-03-01T21:16:25.068Z,15.48
2019-03-01T21:18:53.853Z,13.53
2019-03-01T21:21:25.593Z,16.97
2019-03-01T21:23:54.161Z,15.78
2019-03-01T21:26:24.073Z,15.72
2019-03-01T21:28:53.512Z,11.65
2019-03-01T21:31:23.187Z,14.40
2019-03-01T21:33:52.734Z,9.93
2019-03-01T21:36:22.913Z,18.55
2019-03-01T21:41:19.871Z,13.72
2019-03-01T21:43:48.729Z,9.53
2019-03-01T21:46:18.207Z,16.17
2019-03-01T21:48:47.481Z,20.10
2019-03-01T21:51:18.522Z,10.72
2019-03-01T21:53:47.123Z,10.65
2019-03-01T21:56:34.725Z,7.15
2019-03-01T21:59:04.290Z,11.35
2019-03-01T22:01:33.083Z,7.35
2019-03-01T22:04:02.529Z,6.37
2019-03-01T22:09:00.972Z,12.65
2019-03-01T22:11:29.364Z,14.03
2019-03-01T22:13:59.188Z,10.30
2019-03-01T22:16:27.458Z,6.57
2019-03-01T22:18:58.735Z,5.15
2019-03-01T22:21:26.616Z,13.40
2019-03-01T22:23:55.481Z,6.03
2019-03-01T22:26:24.113Z,8.78
2019-03-01T22:28:52.889Z,11.15
2019-03-01T22:31:21.926Z,5.78
2019-03-01T22:33:52.653Z,11.15
2019-03-01T22:36:21.115Z,8.90
2019-03-01T22:38:49.381Z,8.53
2019-03-01T22:41:18.028Z,10.00
2019-03-01T22:43:46.361Z,9.20
2019-03-01T22:46:15.124Z,8.13
2019-03-01T22:48:47.142Z,10.70
2019-03-01T22:51:14.431Z,5.53
2019-03-01T22:53:44.203Z,10.15
2019-03-01T22:56:13.143Z,7.40
2019-03-01T22:58:41.368Z,8.28
2019-03-01T23:01:16.744Z,8.73
2019-03-01T23:03:51.572Z,8.75
2019-03-01T23:06:20.561Z,9.20
2019-03-01T23:08:48.763Z,7.60
2019-03-01T23:11:17.071Z,6.12
2019-03-01T23:13:45.418Z,8.53
2019-03-01T23:16:15.967Z,6.00
2019-03-01T23:18:44.156Z,11.30
2019-03-01T23:21:12.504Z,5.47
2019-03-01T23:23:40.952Z,8.53
2019-03-01T23:26:09.481Z,4.45
2019-03-01T23:28:40.765Z,10.23
2019-03-01T23:31:08.124Z,6.08
2019-03-01T23:33:36.361Z,5.53
2019-03-01T23:36:05.112Z,8.50
2019-03-01T23:38:33.411Z,4.00
2019-03-01T23:41:01.741Z,3.95
2019-03-01T23:43:30.876Z,4.72
2019-03-01T23:46:00.054Z,11.63
2019-03-01T23:48:28.573Z,6.53
2019-03-01T23:50:56.917Z,9.25
2019-03-01T23:53:25.185Z,7.22
2019-03-01T23:55:54.693Z,7.33
2019-03-01T23:58:23.632Z,7.60
